createdAt,value
2019-05-01T00:02:31.359Z,32.73
2019-05-01T00:05:04.471Z,32.83
2019-05-01T00:07:36.609Z,31.37
2019-05-01T00:10:08.329Z,33.23
2019-05-01T00:12:39.859Z,33.45
2019-05-01T00:15:13.806Z,34.10
2019-05-01T00:17:45.584Z,32.40
2019-05-01T00:20:17.860Z,33.35
2019-05-01T00:22:49.256Z,35.20
2019-05-01T00:25:20.795Z,34.33
2019-05-01T00:27:52.187Z,35.33
2019-05-01T00:30:29.992Z,34.95
2019-05-01T00:32:57.748Z,35.05
2019-05-01T00:35:29.266Z,35.17
2019-05-01T00:38:00.856Z,35.23
2019-05-01T00:40:32.488Z,36.80
2019-05-01T00:43:03.947Z,35.00
2019-05-01T00:45:35.650Z,35.90
2019-05-01T00:48:06.952Z,34.70
2019-05-01T00:50:38.389Z,34.33
2019-05-01T00:53:09.978Z,35.17
2019-05-01T00:55:55.858Z,36.50
2019-05-01T00:58:34.789Z,36.48
2019-05-01T01:01:13.851Z,37.77
2019-05-01T01:03:45.654Z,37.55
2019-05-01T01:06:17.061Z,36.98
2019-05-01T01:08:48.806Z,37.65
2019-05-01T01:11:20.166Z,38.02
2019-05-01T01:13:51.773Z,38.38
2019-05-01T01:16:23.238Z,37.93
2019-05-01T01:18:54.720Z,37.65
2019-05-01T01:21:26.172Z,37.42
2019-05-01T01:23:58.032Z,39.15
2019-05-01T01:26:31.250Z,38.30
2019-05-01T01:29:02.766Z,37.73
2019-05-01T01:31:34.293Z,40.20
2019-05-01T01:34:05.889Z,41.88
2019-05-01T01:36:37.440Z,39.35
2019-05-01T01:39:09.102Z,38.05
2019-05-01T01:41:40.753Z,38.73
2019-05-01T01:44:20.233Z,38.05
2019-05-01T01:46:53.570Z,38.92
2019-05-01T01:49:25.015Z,38.80
2019-05-01T01:51:56.584Z,38.55
2019-05-01T01:54:28.554Z,39.33
2019-05-01T01:57:00.006Z,38.78
2019-05-01T01:59:32.074Z,39.03
2019-05-01T02:02:09.593Z,41.63
2019-05-01T02:04:51.681Z,43.30
2019-05-01T02:07:23.340Z,41.50
2019-05-01T02:09:55.037Z,39.80
2019-05-01T02:12:26.910Z,40.20
2019-05-01T02:14:58.588Z,39.08
2019-05-01T02:17:30.049Z,42.25
2019-05-01T02:20:01.492Z,41.08
2019-05-01T02:22:33.209Z,40.20
2019-05-01T02:25:07.494Z,42.00
2019-05-01T02:27:41.172Z,41.42
2019-05-01T02:30:14.367Z,40.00
2019-05-01T02:32:47.252Z,41.10
2019-05-01T02:35:19.899Z,40.43
2019-05-01T02:37:53.320Z,39.90
2019-05-01T02:40:45.931Z,40.35
2019-05-01T02:43:19.285Z,40.43
2019-05-01T02:45:54.913Z,39.75
2019-05-01T02:48:28.221Z,39.45
2019-05-01T02:51:02.628Z,41.05
2019-05-01T02:53:38.121Z,39.13
2019-05-01T02:56:29.398Z,41.90
2019-05-01T02:59:02.888Z,39.75
2019-05-01T03:01:47.417Z,40.63
2019-05-01T03:04:12.140Z,41.13
2019-05-01T03:06:44.486Z,40.48
2019-05-01T03:09:18.231Z,40.25
2019-05-01T03:11:53.103Z,40.28
2019-05-01T03:14:29.457Z,41.60
2019-05-01T03:17:03.911Z,40.48
2019-05-01T03:19:37.250Z,41.73
2019-05-01T03:22:11.242Z,38.30
2019-05-01T03:24:43.990Z,42.55
2019-05-01T03:27:16.565Z,40.43
2019-05-01T03:29:48.498Z,41.28
2019-05-01T03:32:20.190Z,45.25
2019-05-01T03:34:53.410Z,42.43
2019-05-01T03:37:25.216Z,41.00
2019-05-01T03:39:57.098Z,41.25
2019-05-01T03:42:29.593Z,39.20
2019-05-01T03:45:01.954Z,39.78
2019-05-01T03:47:33.686Z,39.35
2019-05-01T03:50:07.830Z,40.35
2019-05-01T03:52:39.409Z,41.83
2019-05-01T03:55:11.089Z,43.02
2019-05-01T03:57:43.344Z,42.25
2019-05-01T04:00:16.999Z,43.25
2019-05-01T04:03:06.677Z,43.02
2019-05-01T04:05:38.173Z,44.23
2019-05-01T04:08:11.523Z,42.08
2019-05-01T04:10:43.742Z,41.85
2019-05-01T04:13:15.483Z,42.30
2019-05-01T04:15:47.146Z,43.48
2019-05-01T04:18:18.796Z,43.55
2019-05-01T04:20:50.601Z,44.80
2019-05-01T04:23:22.220Z,44.30
2019-05-01T04:25:54.811Z,44.65
2019-05-01T04:28:30.744Z,44.55
2019-05-01T04:31:22.214Z,43.52
2019-05-01T04:33:58.997Z,41.37
2019-05-01T04:36:32.103Z,43.15
2019-05-01T04:39:05.983Z,40.83
2019-05-01T04:41:38.050Z,40.92
2019-05-01T04:44:10.073Z,40.70
2019-05-01T04:46:41.547Z,40.08
2019-05-01T04:49:17.823Z,39.27
2019-05-01T04:51:47.857Z,40.08
2019-05-01T04:54:19.519Z,39.85
2019-05-01T04:56:51.107Z,40.50
2019-05-01T04:59:22.728Z,39.60
2019-05-01T05:02:01.984Z,40.25
2019-05-01T05:04:34.512Z,40.55
2019-05-01T05:07:05.986Z,40.58
2019-05-01T05:09:42.360Z,41.88
2019-05-01T05:12:15.649Z,41.28
2019-05-01T05:14:48.736Z,41.58
2019-05-01T05:17:24.073Z,41.18
2019-05-01T05:19:56.291Z,40.92
2019-05-01T05:22:27.773Z,41.98
2019-05-01T05:25:00.395Z,42.65
2019-05-01T05:27:33.215Z,43.00
2019-05-01T05:30:05.769Z,41.88
2019-05-01T05:32:40.283Z,41.48
2019-05-01T05:35:14.214Z,42.43
2019-05-01T05:37:56.018Z,41.85
2019-05-01T05:40:30.952Z,42.78
2019-05-01T05:43:02.808Z,42.55
2019-05-01T05:45:35.489Z,43.08
2019-05-01T05:48:07.512Z,42.25
2019-05-01T05:50:42.731Z,41.18
2019-05-01T05:53:17.430Z,40.55
2019-05-01T05:55:53.146Z,41.90
2019-05-01T05:58:31.851Z,42.67
2019-05-01T06:01:13.886Z,40.70
2019-05-01T06:03:54.124Z,41.18
2019-05-01T06:06:35.373Z,41.05
2019-05-01T06:09:08.941Z,40.65
2019-05-01T06:12:00.171Z,40.25
2019-05-01T06:14:40.580Z,40.88
2019-05-01T06:17:30.381Z,39.95
2019-05-01T06:23:06.586Z,38.50
2019-05-01T06:25:48.461Z,38.45
2019-05-01T06:28:24.769Z,38.78
2019-05-01T06:30:55.052Z,36.42
2019-05-01T06:33:28.126Z,35.58
2019-05-01T06:35:59.571Z,35.78
2019-05-01T06:38:36.066Z,36.30
2019-05-01T06:41:05.068Z,35.55
2019-05-01T06:43:44.178Z,34.85
2019-05-01T06:46:22.186Z,34.50
2019-05-01T06:49:06.956Z,34.38
2019-05-01T06:51:42.703Z,33.83
2019-05-01T06:54:16.316Z,33.05
2019-05-01T06:56:50.620Z,34.10
2019-05-01T06:59:26.368Z,34.50
2019-05-01T07:01:58.469Z,33.38
2019-05-01T07:04:32.327Z,33.53
2019-05-01T07:07:09.867Z,33.45
2019-05-01T07:09:44.130Z,32.67
2019-05-01T07:12:15.590Z,33.55
2019-05-01T07:14:50.826Z,32.83
2019-05-01T07:17:20.973Z,32.53
2019-05-01T07:20:11.910Z,33.42
2019-05-01T07:22:44.180Z,31.73
2019-05-01T07:25:15.545Z,33.73
2019-05-01T07:27:47.239Z,32.45
2019-05-01T07:30:28.085Z,36.83
2019-05-01T07:32:59.714Z,32.95
2019-05-01T07:35:33.071Z,32.80
2019-05-01T07:38:05.056Z,31.20
2019-05-01T07:40:36.963Z,31.60
2019-05-01T07:43:19.002Z,34.25
2019-05-01T07:45:51.709Z,33.55
2019-05-01T07:48:41.622Z,30.95
2019-05-01T07:51:13.321Z,31.15
2019-05-01T07:53:45.671Z,32.42
2019-05-01T07:56:18.487Z,31.55
2019-05-01T07:58:52.023Z,31.62
2019-05-01T08:01:40.217Z,30.80
2019-05-01T08:04:13.864Z,32.70
2019-05-01T08:06:46.099Z,32.88
2019-05-01T08:09:17.517Z,31.90
2019-05-01T08:11:48.786Z,32.08
2019-05-01T08:14:20.229Z,31.62
2019-05-01T08:16:51.706Z,30.85
2019-05-01T08:19:27.470Z,30.48
2019-05-01T08:22:12.483Z,29.50
2019-05-01T08:24:43.941Z,29.77
2019-05-01T08:27:20.216Z,28.45
2019-05-01T08:30:12.764Z,28.57
2019-05-01T08:32:44.846Z,31.57
2019-05-01T08:35:17.875Z,27.73
2019-05-01T08:37:49.389Z,27.45
2019-05-01T08:40:21.777Z,32.90
2019-05-01T08:42:53.261Z,40.85
2019-05-01T08:45:28.862Z,42.40
2019-05-01T08:48:07.876Z,39.27
2019-05-01T08:50:39.346Z,36.30
2019-05-01T08:53:10.865Z,34.38
2019-05-01T08:55:45.437Z,29.92
2019-05-01T08:58:15.932Z,27.90
2019-05-01T09:00:47.548Z,27.95
2019-05-01T09:03:20.466Z,28.07
2019-05-01T09:05:56.784Z,27.20
2019-05-01T09:08:26.982Z,24.25
2019-05-01T09:11:00.379Z,23.10
2019-05-01T09:13:31.325Z,22.87
2019-05-01T09:16:02.719Z,20.80
2019-05-01T09:18:34.061Z,20.62
2019-05-01T09:21:05.483Z,20.02
2019-05-01T09:23:37.044Z,19.77
2019-05-01T09:26:15.899Z,19.05
2019-05-01T09:28:47.867Z,19.67
2019-05-01T09:31:34.421Z,19.23
2019-05-01T09:34:09.210Z,20.17
2019-05-01T09:36:39.650Z,18.95
2019-05-01T09:39:12.689Z,20.27
2019-05-01T09:41:47.385Z,19.70
2019-05-01T09:44:18.863Z,21.07
2019-05-01T09:46:50.350Z,20.43
2019-05-01T09:49:22.518Z,19.75
2019-05-01T09:51:55.743Z,19.37
2019-05-01T09:54:28.717Z,19.52
2019-05-01T09:57:00.100Z,17.67
2019-05-01T09:59:31.461Z,17.05
2019-05-01T10:02:07.710Z,18.50
2019-05-01T10:04:36.038Z,18.87
2019-05-01T10:07:09.193Z,16.42
2019-05-01T10:09:40.794Z,17.17
2019-05-01T10:12:13.187Z,16.05
2019-05-01T10:14:44.673Z,18.20
2019-05-01T10:17:16.219Z,16.42
2019-05-01T10:19:50.095Z,15.40
2019-05-01T10:22:20.636Z,14.90
2019-05-01T10:24:51.975Z,13.53
2019-05-01T10:27:26.199Z,13.50
2019-05-01T10:30:04.941Z,13.62
2019-05-01T10:32:38.426Z,12.23
2019-05-01T10:35:19.211Z,11.53
2019-05-01T10:37:50.905Z,11.73
2019-05-01T10:40:26.946Z,12.30
2019-05-01T10:42:59.719Z,11.48
2019-05-01T10:45:31.177Z,11.00
2019-05-01T10:48:02.680Z,9.58
2019-05-01T10:50:34.085Z,9.38
2019-05-01T10:53:05.722Z,8.93
2019-05-01T10:55:37.094Z,10.63
2019-05-01T10:58:12.739Z,10.05
2019-05-01T11:00:43.567Z,9.98
2019-05-01T11:03:15.073Z,9.90
2019-05-01T11:05:55.826Z,8.60
2019-05-01T11:08:20.613Z,9.55
2019-05-01T11:10:52.108Z,8.90
2019-05-01T11:13:23.656Z,8.53
2019-05-01T11:15:55.491Z,7.40
2019-05-01T11:18:27.117Z,8.13
2019-05-01T11:21:00.007Z,10.10
2019-05-01T11:23:31.690Z,9.85
2019-05-01T11:26:03.618Z,11.30
2019-05-01T11:28:35.642Z,36.13
2019-05-01T11:31:09.091Z,10.28
2019-05-01T11:33:42.463Z,10.40
2019-05-01T11:36:15.940Z,13.03
2019-05-01T11:38:50.440Z,13.72
2019-05-01T11:41:40.174Z,11.28
2019-05-01T11:46:42.667Z,10.85
2019-05-01T11:49:15.046Z,10.03
2019-05-01T11:51:47.781Z,11.25
2019-05-01T11:54:20.568Z,7.67
2019-05-01T11:56:52.306Z,6.87
2019-05-01T11:59:24.111Z,5.30
2019-05-01T12:01:55.830Z,4.50
2019-05-01T12:04:30.160Z,107.92
2019-05-01T12:07:01.901Z,5.75
2019-05-01T12:09:33.709Z,5.00
2019-05-01T12:12:08.002Z,4.72
2019-05-01T12:14:40.810Z,4.92
2019-05-01T12:17:23.224Z,4.90
2019-05-01T12:19:54.971Z,5.25
2019-05-01T12:22:26.677Z,5.10
2019-05-01T12:24:58.925Z,5.15
2019-05-01T12:27:30.707Z,4.35
2019-05-01T12:30:02.468Z,4.28
2019-05-01T12:32:35.309Z,3.95
2019-05-01T12:35:17.839Z,4.35
2019-05-01T12:37:49.822Z,4.75
2019-05-01T12:40:21.843Z,3.75
2019-05-01T12:42:53.689Z,3.62
2019-05-01T12:45:25.277Z,4.30
2019-05-01T12:47:58.571Z,3.40
2019-05-01T12:50:31.937Z,3.52
2019-05-01T12:53:14.029Z,3.40
2019-05-01T12:55:48.187Z,4.17
2019-05-01T12:58:19.801Z,3.62
2019-05-01T13:00:55.803Z,3.50
2019-05-01T13:03:27.623Z,3.45
2019-05-01T13:06:00.543Z,3.83
2019-05-01T13:08:32.362Z,3.72
2019-05-01T13:11:04.750Z,3.37
2019-05-01T13:16:12.033Z,3.55
2019-05-01T13:18:43.817Z,3.33
2019-05-01T13:21:15.401Z,3.20
2019-05-01T13:23:47.039Z,3.55
2019-05-01T13:26:20.400Z,2.85
2019-05-01T13:29:03.304Z,3.25
2019-05-01T13:31:48.593Z,3.15
2019-05-01T13:34:20.141Z,3.15
2019-05-01T13:37:02.389Z,3.08
2019-05-01T13:39:27.034Z,3.00
2019-05-01T13:41:58.645Z,3.58
2019-05-01T13:44:30.349Z,3.58
2019-05-01T13:47:02.167Z,3.90
2019-05-01T13:49:33.882Z,3.72
2019-05-01T13:52:05.583Z,3.37
2019-05-01T13:54:37.101Z,3.58
2019-05-01T13:57:08.806Z,3.50
2019-05-01T13:59:41.890Z,3.60
2019-05-01T14:02:15.321Z,3.22
2019-05-01T14:04:47.298Z,2.95
2019-05-01T14:07:20.310Z,4.03
2019-05-01T14:09:52.978Z,2.77
2019-05-01T14:12:24.716Z,2.77
2019-05-01T14:14:57.930Z,2.80
2019-05-01T14:17:29.681Z,2.67
2019-05-01T14:20:08.776Z,2.98
2019-05-01T14:22:51.280Z,2.60
2019-05-01T14:25:22.876Z,2.40
2019-05-01T14:27:54.648Z,2.30
2019-05-01T14:30:26.293Z,2.83
2019-05-01T14:32:58.107Z,3.55
2019-05-01T14:35:29.808Z,3.65
2019-05-01T14:38:01.628Z,2.87
2019-05-01T14:40:33.483Z,3.30
2019-05-01T14:43:05.366Z,2.45
2019-05-01T14:45:37.137Z,3.30
2019-05-01T14:48:08.965Z,3.67
2019-05-01T14:50:40.744Z,3.77
2019-05-01T14:53:12.688Z,72.60
2019-05-01T14:55:44.512Z,4.08
2019-05-01T14:58:16.313Z,3.60
2019-05-01T15:00:47.924Z,4.00
2019-05-01T15:03:19.832Z,4.10
2019-05-01T15:05:51.471Z,4.20
2019-05-01T15:08:24.176Z,3.52
2019-05-01T15:10:56.906Z,2.70
2019-05-01T15:13:46.380Z,2.55
2019-05-01T15:16:35.687Z,3.27
2019-05-01T15:19:14.799Z,3.83
2019-05-01T15:21:46.326Z,3.37
2019-05-01T15:24:17.867Z,3.00
2019-05-01T15:26:49.439Z,3.50
2019-05-01T15:29:23.467Z,3.45
2019-05-01T15:31:55.002Z,3.45
2019-05-01T15:34:26.648Z,3.33
2019-05-01T15:36:58.368Z,2.85
2019-05-01T15:39:31.518Z,3.15
2019-05-01T15:42:07.644Z,3.00
2019-05-01T15:44:41.196Z,3.35
2019-05-01T15:47:12.938Z,3.15
2019-05-01T15:49:45.987Z,3.08
2019-05-01T15:52:17.600Z,18.35
2019-05-01T15:54:49.406Z,3.27
2019-05-01T15:57:21.009Z,4.28
2019-05-01T15:59:52.809Z,4.50
2019-05-01T16:02:24.575Z,4.03
2019-05-01T16:04:56.237Z,4.30
2019-05-01T16:07:27.937Z,4.25
2019-05-01T16:09:59.544Z,4.37
2019-05-01T16:12:32.892Z,4.33
2019-05-01T16:15:08.494Z,5.12
2019-05-01T16:17:40.301Z,4.47
2019-05-01T16:20:17.014Z,6.12
2019-05-01T16:22:48.998Z,4.35
2019-05-01T16:25:20.981Z,4.40
2019-05-01T16:27:52.824Z,4.35
2019-05-01T16:30:26.340Z,4.67
2019-05-01T16:32:58.210Z,4.20
2019-05-01T16:35:31.663Z,4.72
2019-05-01T16:38:04.784Z,4.03
2019-05-01T16:40:58.165Z,4.12
2019-05-01T16:43:29.803Z,6.15
2019-05-01T16:46:01.751Z,5.40
2019-05-01T16:48:33.606Z,6.85
2019-05-01T16:51:13.662Z,5.08
2019-05-01T16:53:45.350Z,6.60
2019-05-01T16:56:17.230Z,4.37
2019-05-01T16:58:49.024Z,3.95
2019-05-01T17:01:23.280Z,4.85
2019-05-01T17:04:06.690Z,3.70
2019-05-01T17:06:45.931Z,3.33
2019-05-01T17:09:37.426Z,4.20
2019-05-01T17:12:10.967Z,3.10
2019-05-01T17:14:42.536Z,3.60
2019-05-01T17:17:15.751Z,13.25
2019-05-01T17:19:47.501Z,2.98
2019-05-01T17:22:19.099Z,3.25
2019-05-01T17:24:50.603Z,3.52
2019-05-01T17:27:23.272Z,4.83
2019-05-01T17:29:57.260Z,4.42
2019-05-01T17:32:29.908Z,6.72
2019-05-01T17:35:06.255Z,5.20
2019-05-01T17:37:35.512Z,5.22
2019-05-01T17:40:07.920Z,6.15
2019-05-01T17:42:40.861Z,5.65
2019-05-01T17:45:12.758Z,4.47
2019-05-01T17:47:46.228Z,4.70
2019-05-01T17:50:21.136Z,3.75
2019-05-01T17:52:51.678Z,3.42
2019-05-01T17:55:24.270Z,3.25
2019-05-01T17:57:55.795Z,5.62
2019-05-01T18:00:30.176Z,3.42
2019-05-01T18:03:05.303Z,3.05
2019-05-01T18:05:56.178Z,2.60
2019-05-01T18:08:28.437Z,2.67
2019-05-01T18:10:59.750Z,3.30
2019-05-01T18:13:31.348Z,4.60
2019-05-01T18:16:02.768Z,3.87
2019-05-01T18:18:34.236Z,2.42
2019-05-01T18:21:05.552Z,2.10
2019-05-01T18:23:56.830Z,2.87
2019-05-01T18:26:32.305Z,2.83
2019-05-01T18:29:11.287Z,3.47
2019-05-01T18:31:42.959Z,3.80
2019-05-01T18:34:14.468Z,4.15
2019-05-01T18:37:02.874Z,3.58
2019-05-01T18:39:35.839Z,2.83
2019-05-01T18:42:08.831Z,3.33
2019-05-01T18:44:42.594Z,2.87
2019-05-01T18:47:13.282Z,2.95
2019-05-01T18:49:46.759Z,2.87
2019-05-01T18:52:18.555Z,2.40
2019-05-01T18:54:49.872Z,2.30
2019-05-01T18:57:21.038Z,1.92
2019-05-01T18:59:52.261Z,2.85
2019-05-01T19:02:25.154Z,2.70
2019-05-01T19:04:58.257Z,2.30
2019-05-01T19:07:29.796Z,2.92
2019-05-01T19:10:01.322Z,2.60
2019-05-01T19:12:32.782Z,2.70
2019-05-01T19:15:05.569Z,3.27
2019-05-01T19:17:37.386Z,3.90
2019-05-01T19:20:08.770Z,2.70
2019-05-01T19:22:40.197Z,2.60
2019-05-01T19:25:16.129Z,2.67
2019-05-01T19:27:44.765Z,7.72
2019-05-01T19:30:17.012Z,6.35
2019-05-01T19:32:48.129Z,2.62
2019-05-01T19:35:23.596Z,2.77
2019-05-01T19:37:57.443Z,2.45
2019-05-01T19:40:30.634Z,3.62
2019-05-01T19:43:00.144Z,2.12
2019-05-01T19:45:33.095Z,2.02
2019-05-01T19:48:04.653Z,2.85
2019-05-01T19:50:39.911Z,2.77
2019-05-01T19:53:09.999Z,3.17
2019-05-01T19:55:44.853Z,3.50
2019-05-01T19:58:15.362Z,3.42
2019-05-01T20:00:55.278Z,3.85
2019-05-01T20:03:30.536Z,3.58
2019-05-01T20:06:05.375Z,3.75
2019-05-01T20:08:33.564Z,3.10
2019-05-01T20:11:05.034Z,3.52
2019-05-01T20:13:36.529Z,3.15
2019-05-01T20:16:09.129Z,3.20
2019-05-01T20:18:40.495Z,3.20
2019-05-01T20:21:11.750Z,3.40
2019-05-01T20:23:43.227Z,3.15
2019-05-01T20:26:14.506Z,3.37
2019-05-01T20:28:47.152Z,3.12
2019-05-01T20:31:20.864Z,3.42
2019-05-01T20:33:51.875Z,3.67
2019-05-01T20:36:23.692Z,3.00
2019-05-01T20:38:54.909Z,3.50
2019-05-01T20:41:26.179Z,3.35
2019-05-01T20:43:57.650Z,3.30
2019-05-01T20:46:28.951Z,2.90
2019-05-01T20:49:00.951Z,3.12
2019-05-01T20:51:33.498Z,7.47
2019-05-01T20:54:05.056Z,3.45
2019-05-01T20:56:54.236Z,3.60
2019-05-01T20:59:25.630Z,3.72
2019-05-01T21:01:59.627Z,4.08
2019-05-01T21:04:47.004Z,4.20
2019-05-01T21:07:35.301Z,3.92
2019-05-01T21:10:07.398Z,3.47
2019-05-01T21:12:38.819Z,3.00
2019-05-01T21:15:10.561Z,3.20
2019-05-01T21:17:44.297Z,3.02
2019-05-01T21:20:15.766Z,3.90
2019-05-01T21:22:47.295Z,2.50
2019-05-01T21:25:18.575Z,2.37
2019-05-01T21:27:49.867Z,2.75
2019-05-01T21:30:21.099Z,2.72
2019-05-01T21:32:54.193Z,2.87
2019-05-01T21:35:25.699Z,2.77
2019-05-01T21:37:57.256Z,2.60
2019-05-01T21:40:38.685Z,2.52
2019-05-01T21:43:03.043Z,2.35
2019-05-01T21:45:34.464Z,2.55
2019-05-01T21:48:05.769Z,2.37
2019-05-01T21:50:38.187Z,2.47
2019-05-01T21:53:09.480Z,2.10
2019-05-01T21:55:42.328Z,1.98
2019-05-01T21:58:15.263Z,2.10
2019-05-01T22:00:48.865Z,2.67
2019-05-01T22:03:23.043Z,2.37
2019-05-01T22:05:56.218Z,2.60
2019-05-01T22:08:27.919Z,2.60
2019-05-01T22:11:01.753Z,2.80
2019-05-01T22:13:32.393Z,2.85
2019-05-01T22:16:05.415Z,3.10
2019-05-01T22:18:47.395Z,3.27
2019-05-01T22:21:32.632Z,3.20
2019-05-01T22:24:21.932Z,3.35
2019-05-01T22:26:59.107Z,3.80
2019-05-01T22:29:34.153Z,3.65
2019-05-01T22:32:27.776Z,3.65
2019-05-01T22:35:04.088Z,3.60
2019-05-01T22:37:35.906Z,3.60
2019-05-01T22:40:08.937Z,3.45
2019-05-01T22:42:40.343Z,3.22
2019-05-01T22:45:16.759Z,3.80
2019-05-01T22:47:50.765Z,3.77
2019-05-01T22:50:21.770Z,4.10
2019-05-01T22:52:53.088Z,3.77
2019-05-01T22:55:26.636Z,3.70
2019-05-01T22:57:59.113Z,3.25
2019-05-01T23:00:41.217Z,3.67
2019-05-01T23:03:20.557Z,3.80
2019-05-01T23:05:51.980Z,3.85
2019-05-01T23:08:23.503Z,4.00
2019-05-01T23:10:54.804Z,4.40
2019-05-01T23:13:26.164Z,4.30
2019-05-01T23:15:58.083Z,4.33
2019-05-01T23:18:29.414Z,4.42
2019-05-01T23:21:00.631Z,4.65
2019-05-01T23:23:32.009Z,4.92
2019-05-01T23:26:03.818Z,4.45
2019-05-01T23:28:39.829Z,3.55
2019-05-01T23:31:08.622Z,3.92
2019-05-01T23:33:39.965Z,3.72
2019-05-01T23:36:23.002Z,3.22
2019-05-01T23:38:44.398Z,3.22
2019-05-01T23:41:15.855Z,3.22
2019-05-01T23:43:47.212Z,3.15
2019-05-01T23:46:18.596Z,3.62
2019-05-01T23:48:50.051Z,3.10
2019-05-01T23:51:23.617Z,3.40
2019-05-01T23:53:54.947Z,3.40
2019-05-01T23:56:26.250Z,3.67
2019-05-01T23:58:57.589Z,3.60
